Latest Coastal Weather Observations for Port Macquarie Airport

IDN60701

Issued at 4:31 am EST Tuesday 31 May 2016 (issued every 10 minutes, with the page automatically refreshed every 10 minutes)

About coastal observations | Map of coastal stations | Coastal observations for NSW | Marine services | Other Formats
Station Details ID: 060139 Name: PORT MACQUARIE AIRPORT AWS Lat: -31.43 Lon: 152.87 Height: 4.2 m
Data from the previous 72 hours. | See also: Recent months at Port Macquarie Airport
Date/Time
EST
Temp

°C
Wind Pressure Rain
since 9am
mm
Weather Cloud Vis
km
Sea
Height
m
Swell
Dir
 
Speed
knots
Gust
knots
hPa Trend Height
m
Period
s
Dir
31/04:00am 9.0 W 4 6 1026.1 - 0.0 - - 10 - - - -
31/03:30am 8.9 W 4 6 1026.1 - 0.0 - - 10 - - - -
31/03:00am 9.1 W 4 6 1026.1 - 0.0 - Mostly clear 10 - - - -
31/02:30am 9.5 WSW 4 7 1026.2 - 0.0 - Cloudy 10 - - - -
31/02:00am 9.5 WSW 5 8 1026.1 - 0.0 - - 10 - - - -
31/01:30am 9.4 W 5 7 1026.2 - 0.0 - - 10 - - - -
31/01:00am 9.0 W 3 6 1026.3 - 0.0 - - 10 - - - -
31/12:30am 9.3 WSW 5 11 1026.3 - 0.0 - - 10 - - - -
31/12:00am 9.8 W 7 10 1026.2 - 0.0 - - 10 - - - -
 
Date/Time
EST
Temp

°C
Wind Pressure Rain
since 9am
mm
Weather Cloud Vis
km
Sea
Height
m
Swell
Dir
 
Speed
knots
Gust
knots
hPa Trend Height
m
Period
s
Dir
30/11:30pm 9.8 WSW 4 8 1026.5 - 0.0 - - 10 - - - -
30/11:00pm 8.2 W 1 5 1026.6 - 0.0 - - 10 - - - -
30/10:30pm 8.8 NNW 2 4 1026.6 - 0.0 - - 10 - - - -
30/10:00pm 7.7 W 1 4 1026.5 - 0.0 - - 10 - - - -
30/09:30pm 7.0 CALM 0 3 1026.6 - 0.0 - - 10 - - - -
30/09:10pm 5.8 CALM 0 3 1026.4 - 0.0 - - 10 - - - -
30/09:00pm 5.7 CALM 0 0 1026.3 - 0.0 - - 3 - - - -
30/08:50pm 5.1 CALM 0 3 1026.3 - 0.0 - - 5 - - - -
30/08:30pm 5.5 CALM 0 0 1026.1 - 0.0 - - 10 - - - -
30/08:00pm 6.1 CALM 0 0 1025.9 - 0.0 - - 10 - - - -
30/07:30pm 7.3 W 1 3 1025.6 - 0.0 - - 10 - - - -
30/07:00pm 8.0 SW 3 4 1025.4 - 0.0 - - 10 - - - -
30/06:30pm 8.5 SW 3 4 1025.2 - 0.0 - - 10 - - - -
30/06:00pm 9.8 SW 4 5 1024.8 - 0.0 - - 10 - - - -
30/05:30pm 11.0 SW 4 4 1024.4 - 0.0 - - 10 - - - -
30/05:00pm 13.5 S 4 5 1024.0 - 0.0 - - 10 - - - -
30/04:30pm 16.4 SSE 5 6 1023.7 - 0.0 - - 10 - - - -
30/04:00pm 17.7 ESE 6 8 1023.5 - 0.0 - - 10 - - - -
30/03:30pm 18.5 SE 5 7 1023.1 - 0.0 - - 10 - - - -
30/03:00pm 19.0 ESE 5 7 1022.9 - 0.0 - Mostly clear 10 - - - -
30/02:30pm 20.0 NW 3 5 1022.6 - 0.0 - - 10 - - - -
30/02:00pm 19.9 NNE 3 6 1022.5 - 0.0 - - 10 - - - -
30/01:30pm 19.6 SW 3 6 1022.7 - 0.0 - - 10 - - - -
30/01:00pm 18.9 W 4 7 1022.9 - 0.0 - - 10 - - - -
30/12:30pm 18.5 SW 4 8 1023.2 - 0.0 - - 10 - - - -
30/12:00pm 18.5 SSE 5 7 1023.5 - 0.0 - - 10 - - - -
30/11:30am 18.0 SSW 5 8 1024.0 - 0.0 - - 10 - - - -
30/11:00am 17.2 SSW 5 6 1024.4 - 0.0 - - 10 - - - -
30/10:30am 16.2 NW 3 5 1024.8 - 0.0 - - 10 - - - -
30/10:00am 14.7 W 4 6 1025.0 - 0.0 - - 10 - - - -
30/09:30am 13.2 W 4 6 1025.0 - 0.0 - - 10 - - - -
30/09:00am 11.2 WSW 6 9 1024.8 - 0.0 - - 10 - - - -
30/08:30am 10.1 WNW 5 8 1024.6 - 0.0 - - 10 - - - -
30/08:00am 8.8 W 5 7 1024.4 - 0.0 - - 10 - - - -
30/07:30am 7.8 WNW 5 7 1024.1 - 0.0 - - 10 - - - -
30/07:00am 6.6 WSW 5 8 1023.9 - 0.0 - - 10 - - - -
30/06:30am 6.3 WSW 4 6 1023.4 - 0.0 - - 10 - - - -
30/06:00am 6.5 W 4 6 1023.1 - 0.0 - - 10 - - - -
30/05:30am 7.1 W 3 5 1022.7 - 0.0 - - 10 - - - -
30/05:00am 7.5 W 4 6 1022.3 - 0.0 - - 10 - - - -
30/04:30am 7.7 WNW 8 11 1022.0 - 0.0 - - 10 - - - -
30/04:00am 7.4 W 5 8 1021.7 - 0.0 - - 10 - - - -
30/03:30am 7.5 WNW 6 9 1021.4 - 0.0 - - 10 - - - -
30/03:00am 7.0 WNW 5 7 1021.3 - 0.0 - - 10 - - - -
30/02:30am 5.9 W 3 6 1021.3 - 0.0 - - 10 - - - -
30/02:00am 5.6 W 3 4 1021.3 - 0.0 - - 10 - - - -
30/01:30am 5.2 WNW 3 5 1021.2 - 0.0 - - 10 - - - -
30/01:00am 7.0 WNW 7 10 1021.1 - 0.0 - - 10 - - - -
30/12:30am 4.1 WSW 2 5 1021.0 - 0.0 - - 10 - - - -
30/12:00am 3.0 CALM 0 0 1020.9 - 0.0 - - 10 - - - -
 
Date/Time
EST
Temp

°C
Wind Pressure Rain
since 9am
mm
Weather Cloud Vis
km
Sea
Height
m
Swell
Dir
 
Speed
knots
Gust
knots
hPa Trend Height
m
Period
s
Dir
29/11:30pm 3.0 W 1 3 1021.1 - 0.0 - - 10 - - - -
29/11:00pm 3.8 CALM 0 0 1021.1 - 0.0 - - 10 - - - -
29/10:40pm 5.6 CALM 0 0 1021.0 - 0.0 - - 10 - - - -
29/10:30pm 3.8 CALM 0 0 1021.0 - 0.0 - - 5 - - - -
29/10:20pm 3.1 CALM 0 0 1021.0 - 0.0 - - 5 - - - -
29/10:00pm 4.0 CALM 0 0 1021.1 - 0.0 - - 10 - - - -
29/09:35pm 4.6 WSW 1 3 1020.9 - 0.0 - - 10 - - - -
29/09:30pm 4.4 SW 1 3 1020.8 - 0.0 - - 10 - - - -
29/09:00pm 4.5 CALM 0 0 1020.6 - 0.0 - - 4 - - - -
29/08:59pm 4.6 CALM 0 0 1020.6 - 0.0 - - 4 - - - -
29/08:36pm 4.6 CALM 0 0 1020.5 - 0.0 - - 10 - - - -
29/08:30pm 5.2 CALM 0 0 1020.4 - 0.0 - - 10 - - - -
29/08:16pm 5.7 CALM 0 0 1020.4 - 0.0 - - 5 - - - -
29/08:00pm 5.5 CALM 0 0 1020.4 - 0.0 - - 10 - - - -
29/07:30pm 6.5 CALM 0 0 1019.8 - 0.0 - - 10 - - - -
29/07:00pm 7.3 CALM 0 0 1019.5 - 0.0 - - 10 - - - -
29/06:30pm 7.7 WNW 4 5 1018.9 - 0.0 - - 10 - - - -
29/06:00pm 9.3 WNW 1 4 1018.5 - 0.0 - - 10 - - - -
29/05:30pm 11.0 CALM 0 0 1018.2 - 0.0 - - 10 - - - -
29/05:00pm 14.3 S 4 6 1017.7 - 0.0 - - 10 - - - -
29/04:30pm 16.0 S 6 8 1017.2 - 0.0 - - 10 - - - -
29/04:00pm 17.3 SSE 7 9 1016.9 - 0.0 - - 10 - - - -
29/03:30pm 17.8 SE 7 10 1016.7 - 0.0 - - 10 - - - -
29/03:00pm 18.2 SE 5 10 1016.4 - 0.0 - - 10 - - - -
29/02:30pm 18.2 SE 7 10 1016.3 - 0.0 - - 10 - - - -
29/02:00pm 18.7 SE 7 10 1016.1 - 0.0 - - 10 - - - -
29/01:30pm 18.7 SE 5 8 1016.0 - 0.0 - - 10 - - - -
29/01:00pm 18.2 WSW 5 7 1016.0 - 0.0 - - 10 - - - -
29/12:30pm 18.0 SSE 5 9 1016.3 - 0.0 - - 10 - - - -
29/12:00pm 18.3 NNW 1 7 1016.5 - 0.0 - - 10 - - - -
29/11:30am 17.6 N 3 6 1016.8 - 0.0 - - 10 - - - -
29/11:00am 17.1 W 6 9 1017.1 - 0.0 - - 10 - - - -
29/10:30am 16.5 W 7 11 1017.5 - 0.0 - - 10 - - - -
29/10:00am 16.2 W 8 11 1017.4 - 0.0 - - 10 - - - -
29/09:30am 15.6 W 9 13 1017.4 - 0.0 - - 10 - - - -
29/09:00am 14.5 W 6 9 1017.3 - 0.0 - - 10 - - - -
29/08:30am 13.4 W 6 10 1017.0 - 0.0 - - 10 - - - -
29/08:00am 12.4 WNW 4 6 1016.7 - 0.0 - - 10 - - - -
29/07:30am 11.6 WNW 8 11 1016.4 - 0.0 - - 10 - - - -
29/07:00am 10.9 W 8 11 1015.9 - 0.0 - - 10 - - - -
29/06:30am 10.1 W 9 11 1015.6 - 0.0 - - 10 - - - -
29/06:00am 9.7 WNW 7 8 1015.4 - 0.0 - - 10 - - - -
29/05:30am 10.8 WNW 7 11 1015.1 - 0.0 - - 10 - - - -
29/05:00am 10.5 W 7 10 1014.6 - 0.0 - - 10 - - - -
29/04:30am 11.1 W 7 11 1014.3 - 0.0 - - 10 - - - -
29/04:00am 11.2 WNW 10 13 1013.9 - 0.0 - - 10 - - - -
29/03:30am 11.3 W 10 14 1013.6 - 0.0 - - 10 - - - -
29/03:00am 11.3 W 9 12 1013.5 - 0.0 - - 10 - - - -
29/02:30am 10.1 W 8 9 1013.3 - 0.0 - - 10 - - - -
29/02:00am 9.1 W 7 9 1013.3 - 0.0 - - 10 - - - -
29/01:30am 8.9 W 7 8 1013.1 - 0.0 - - 10 - - - -
29/01:00am 10.2 WNW 6 8 1013.0 - 0.0 - - 10 - - - -
29/12:30am 9.2 WNW 6 7 1012.9 - 0.0 - - 10 - - - -
29/12:00am 10.1 W 4 6 1012.8 - 0.0 - - 10 - - - -
 
Date/Time
EST
Temp

°C
Wind Pressure Rain
since 9am
mm
Weather Cloud Vis
km
Sea
Height
m
Swell
Dir
 
Speed
knots
Gust
knots
hPa Trend Height
m
Period
s
Dir
28/11:30pm 12.0 WNW 6 8 1012.7 - 0.0 - - 10 - - - -
28/11:00pm 9.3 W 6 8 1012.6 - 0.0 - - 10 - - - -
28/10:30pm 10.2 WNW 5 7 1012.6 - 0.0 - - 10 - - - -
28/10:00pm 11.6 WNW 5 7 1012.3 - 0.0 - - 10 - - - -
28/09:30pm 11.2 W 7 11 1012.1 - 0.0 - - 10 - - - -
28/09:00pm 9.8 W 1 4 1012.1 - 0.0 - - 10 - - - -
28/08:30pm 12.2 W 7 10 1011.4 - 0.0 - - 10 - - - -
28/08:00pm 12.0 WNW 6 8 1011.1 - 0.0 - - 10 - - - -
28/07:30pm 12.2 W 6 9 1010.7 - 0.0 - - 10 - - - -
28/07:00pm 12.7 W 5 7 1010.3 - 0.0 - - 10 - - - -
28/06:30pm 13.5 WNW 6 10 1010.0 - 0.0 - - 10 - - - -
28/06:00pm 14.3 W 10 14 1010.0 - 0.0 - - 10 - - - -
28/05:30pm 14.8 WNW 13 21 1009.3 - 0.0 - - 10 - - - -
28/05:00pm 15.9 WNW 12 20 1008.3 - 0.0 - - 10 - - - -
28/04:31pm 16.8 WNW 16 26 1008.1 - 0.0 - - 10 - - - -
28/04:30pm 16.8 W 17 26 1008.0 - 0.0 - - 10 - - - -
28/04:15pm 17.2 WNW 15 25 1007.7 - 0.0 - - 10 - - - -
28/04:00pm 17.4 WNW 12 18 1007.3 - 0.0 - - 10 - - - -
28/03:30pm 18.4 WNW 11 17 1006.7 - 0.0 - Partly cloudy 10 - - - -
28/03:00pm 19.1 WNW 12 22 1006.5 - 0.0 - Cloudy 10 - - - -
28/02:30pm 19.3 WNW 13 19 1006.2 - 0.0 - Partly cloudy 10 - - - -
28/02:00pm 19.3 WNW 17 24 1006.1 - 0.0 - Partly cloudy 10 - - - -
28/01:30pm 19.6 WNW 11 17 1005.9 - 0.0 - Partly cloudy 10 - - - -
28/01:00pm 19.5 NW 12 19 1006.0 - 0.0 - Partly cloudy 10 - - - -
28/12:30pm 17.3 N 7 17 1006.3 - 0.0 - Partly cloudy 10 - - - -
28/12:00pm 17.5 NNE 6 9 1006.3 - 0.0 - Cloudy 10 - - - -
28/11:30am 17.7 N 7 9 1006.9 - 0.0 - Partly cloudy 10 - - - -
28/11:00am 18.3 N 8 14 1007.4 - 0.0 - - 10 - - - -
28/10:30am 17.9 N 10 13 1008.1 - 0.0 - - 10 - - - -
28/10:00am 17.3 NNW 9 13 1008.7 - 0.0 - - 10 - - - -
28/09:30am 16.7 N 6 7 1008.9 - 0.0 - - 10 - - - -
28/09:00am 15.0 NNE 2 5 1009.3 - 0.0 - - 10 - - - -
28/08:30am 12.5 N 6 9 1009.2 - 0.0 - - 10 - - - -
28/08:00am 10.7 NNW 3 5 1009.8 - 0.0 - - 10 - - - -
28/07:30am 8.0 CALM 0 0 1009.8 - 0.0 - - 10 - - - -
28/07:00am 6.4 NNW 5 6 1009.8 - 0.0 - - 10 - - - -
28/06:30am 6.2 NW 7 8 1009.1 - 0.0 - - 10 - - - -
28/06:00am 6.4 NNW 7 8 1008.8 - 0.0 - - 10 - - - -
28/05:30am 5.8 NW 4 5 1008.7 - 0.0 - - 10 - - - -
28/05:00am 6.9 NNW 5 6 1008.8 - 0.0 - - 10 - - - -

Other Formats:

Comma delimited format used in spreadsheet applications
http://www.bom.gov.au/fwo/IDN60701/IDN60701.94786.axf

JavaScript Object Notation format (JSON) in row-major order
http://www.bom.gov.au/fwo/IDN60701/IDN60701.94786.json